Time;durP1;ratioP1;P1;durP2;ratioP2;P2;SDS_P1;SDS_P2;PMS_P1;PMS_P2;Temp;Humidity;BMP_temperature;BMP_pressure;BME280_temperature;BME280_humidity;BME280_pressure;Samples;Min_cycle;Max_cycle;Signal;HPM_P1;HPM_P2
2021/07/04 00:02:06;;;;;;;73.95;35.15;;;;;;;17.72;99.06;101417.91;4956955;28;20102;-70
2021/07/04 00:04:33;;;;;;;72.18;32.83;;;;;;;17.74;98.59;101413.31;4956484;28;20074;-70
2021/07/04 00:07:01;;;;;;;67.15;31.67;;;;;;;17.67;97.69;101418.19;4958867;28;20067;-69
2021/07/04 00:09:29;;;;;;;62.92;30.77;;;;;;;17.61;97.32;101420.34;4955598;28;20516;-70
2021/07/04 00:11:57;;;;;;;67.50;29.88;;;;;;;17.61;97.02;101412.25;4959733;28;20626;-69
2021/07/04 00:14:25;;;;;;;60.47;26.50;;;;;;;17.61;97.33;101412.25;4956762;28;20066;-69
2021/07/04 00:16:53;;;;;;;57.17;27.90;;;;;;;17.53;95.78;101413.50;4956718;28;20074;-69
2021/07/04 00:19:22;;;;;;;54.58;28.25;;;;;;;17.50;96.17;101407.38;4957258;28;20141;-69
2021/07/04 00:21:50;;;;;;;61.08;28.15;;;;;;;17.52;96.02;101408.16;4956500;28;20047;-69
2021/07/04 00:24:18;;;;;;;51.88;26.92;;;;;;;17.53;96.17;101400.00;4961462;28;20078;-69
2021/07/04 00:26:46;;;;;;;53.30;27.83;;;;;;;17.56;96.81;101398.97;4958899;28;20052;-69
2021/07/04 00:29:14;;;;;;;57.42;27.67;;;;;;;17.54;97.00;101395.50;4962051;28;20067;-69
2021/07/04 00:31:41;;;;;;;51.50;28.10;;;;;;;17.58;97.54;101398.91;4954596;28;20047;-68
2021/07/04 00:34:09;;;;;;;50.08;24.65;;;;;;;17.55;95.76;101400.81;4952969;28;20066;-68
2021/07/04 00:36:38;;;;;;;48.58;23.10;;;;;;;17.55;97.34;101395.41;4956203;28;20848;-69
2021/07/04 00:39:06;;;;;;;49.60;23.45;;;;;;;17.55;96.64;101395.41;4954701;28;20184;-68
2021/07/04 00:41:34;;;;;;;54.90;25.77;;;;;;;17.55;97.19;101390.03;4956271;28;20050;-68
2021/07/04 00:44:02;;;;;;;53.20;25.35;;;;;;;17.54;96.97;101387.41;4956085;28;20147;-69
2021/07/04 00:46:31;;;;;;;48.70;24.10;;;;;;;17.53;96.21;101391.91;4954993;28;20390;-68
2021/07/04 00:49:01;;;;;;;46.60;21.67;;;;;;;17.48;95.62;101385.88;4956348;28;20114;-69
2021/07/04 00:51:29;;;;;;;45.97;22.58;;;;;;;17.47;95.86;101388.66;4952923;28;20094;-68
2021/07/04 00:53:58;;;;;;;48.22;23.35;;;;;;;17.37;95.81;101385.59;4959670;28;20353;-68
2021/07/04 00:56:26;;;;;;;40.35;21.60;;;;;;;17.31;96.64;101383.19;4955059;28;20133;-68
2021/07/04 00:58:55;;;;;;;43.45;23.52;;;;;;;17.34;96.17;101378.50;4954502;28;20113;-68
2021/07/04 01:01:22;;;;;;;43.35;23.25;;;;;;;17.25;95.66;101376.31;4957027;28;20528;-68
2021/07/04 01:03:50;;;;;;;43.22;21.20;;;;;;;17.23;96.20;101382.72;4956515;28;20156;-68
2021/07/04 01:06:18;;;;;;;42.05;21.77;;;;;;;17.24;96.85;101382.63;4956884;28;20206;-68
2021/07/04 01:08:46;;;;;;;39.53;21.23;;;;;;;17.24;96.54;101371.00;4954219;28;20062;-68
2021/07/04 01:11:15;;;;;;;44.15;22.55;;;;;;;17.22;96.54;101370.19;4956173;28;20090;-68
2021/07/04 01:13:43;;;;;;;43.90;21.15;;;;;;;17.22;96.72;101365.66;4958611;28;20417;-68
2021/07/04 01:16:11;;;;;;;44.22;21.90;;;;;;;17.21;96.48;101366.59;4956006;28;20071;-68
2021/07/04 01:18:39;;;;;;;41.25;20.70;;;;;;;17.15;96.90;101364.25;4957153;28;20082;-68
2021/07/04 01:21:08;;;;;;;44.15;23.50;;;;;;;17.07;96.31;101364.63;4956836;28;20059;-68
2021/07/04 01:23:38;;;;;;;40.42;21.52;;;;;;;17.04;96.33;101366.59;4952972;28;20090;-68
2021/07/04 01:26:05;;;;;;;41.97;19.20;;;;;;;17.01;96.37;101359.56;4963348;28;20067;-68
2021/07/04 01:28:34;;;;;;;44.88;21.92;;;;;;;16.97;97.14;101356.16;4956304;28;20110;-67
2021/07/04 01:31:02;;;;;;;49.70;22.95;;;;;;;16.91;97.72;101359.16;4960214;28;20062;-68
2021/07/04 01:33:30;;;;;;;42.22;21.83;;;;;;;16.88;97.62;101364.69;4959570;28;20063;-67
2021/07/04 01:35:57;;;;;;;42.65;22.17;;;;;;;16.86;97.25;101363.91;4961545;28;20490;-67
2021/07/04 01:38:25;;;;;;;44.70;22.27;;;;;;;16.83;97.61;101363.16;4960519;28;20190;-67
2021/07/04 01:40:54;;;;;;;41.80;21.73;;;;;;;16.84;98.20;101355.03;4958242;28;20462;-68
2021/07/04 01:43:22;;;;;;;42.00;21.67;;;;;;;16.81;97.59;101365.91;4956807;28;20106;-67
2021/07/04 01:45:50;;;;;;;43.47;22.23;;;;;;;16.78;97.62;101357.97;4965454;28;20342;-67
2021/07/04 01:48:18;;;;;;;44.38;20.77;;;;;;;16.78;98.28;101361.53;4954843;28;20457;-67
2021/07/04 01:50:49;;;;;;;53.55;25.13;;;;;;;16.79;99.69;101357.91;4963874;28;20049;-67
2021/07/04 01:53:17;;;;;;;51.70;24.27;;;;;;;16.78;99.02;101357.97;4960566;28;20152;-68
2021/07/04 01:55:46;;;;;;;45.25;22.60;;;;;;;16.77;98.44;101358.91;4961528;28;20165;-67
2021/07/04 01:58:16;;;;;;;45.65;24.73;;;;;;;16.74;98.93;101357.25;4961936;28;20105;-67
2021/07/04 02:00:45;;;;;;;48.50;23.70;;;;;;;16.78;98.59;101349.91;4952869;28;20070;-67
2021/07/04 02:03:13;;;;;;;49.15;23.77;;;;;;;16.72;99.04;101344.81;4962914;28;20118;-67
2021/07/04 02:05:41;;;;;;;50.85;23.42;;;;;;;16.76;99.26;101343.72;4959611;28;20186;-67
2021/07/04 02:08:09;;;;;;;54.65;26.08;;;;;;;16.71;99.57;101345.78;4960117;28;20066;-67
2021/07/04 02:10:39;;;;;;;49.58;23.08;;;;;;;16.75;98.74;101356.34;4958511;28;20099;-67
2021/07/04 02:13:10;;;;;;;48.40;23.33;;;;;;;16.79;99.51;101357.03;4959832;28;20093;-67
2021/07/04 02:15:41;;;;;;;59.17;27.40;;;;;;;16.80;100.00;101356.06;4960624;28;20343;-67
2021/07/04 02:18:11;;;;;;;58.30;26.55;;;;;;;16.79;100.00;101343.56;4957793;28;20063;-67
2021/07/04 02:20:40;;;;;;;55.88;26.05;;;;;;;16.79;99.99;101346.28;4956726;28;20063;-67
2021/07/04 02:23:10;;;;;;;57.35;25.60;;;;;;;16.78;99.63;101353.47;4963205;28;20094;-67
2021/07/04 02:25:39;;;;;;;58.92;26.50;;;;;;;16.78;99.50;101345.38;4955166;28;20058;-67
2021/07/04 02:28:09;;;;;;;61.28;27.98;;;;;;;16.76;99.55;101351.81;4958276;28;20090;-67
2021/07/04 02:30:39;;;;;;;56.58;25.85;;;;;;;16.81;99.54;101347.06;4953766;28;20067;-67
2021/07/04 02:33:09;;;;;;;55.20;25.65;;;;;;;16.79;99.61;101347.13;4960152;28;20569;-67
2021/07/04 02:35:39;;;;;;;57.83;27.77;;;;;;;16.81;99.92;101347.91;4958634;28;20067;-67
2021/07/04 02:38:07;;;;;;;56.55;25.98;;;;;;;16.81;99.44;101347.91;4959397;28;20094;-67
2021/07/04 02:40:36;;;;;;;60.15;28.10;;;;;;;16.81;99.47;101350.63;4961100;28;20179;-68
2021/07/04 02:43:05;;;;;;;56.42;25.50;;;;;;;16.85;99.97;101350.50;4960790;28;20075;-67
2021/07/04 02:45:34;;;;;;;59.30;26.50;;;;;;;16.83;100.00;101352.38;4955500;28;20140;-67
2021/07/04 02:48:03;;;;;;;55.17;26.60;;;;;;;16.83;100.00;101345.16;4961742;28;20447;-68
2021/07/04 02:50:31;;;;;;;56.38;26.25;;;;;;;16.80;100.00;101345.28;4959659;28;20094;-67
2021/07/04 02:52:59;;;;;;;58.67;27.30;;;;;;;16.78;100.00;101355.28;4957216;28;20105;-67
2021/07/04 02:55:27;;;;;;;57.05;26.58;;;;;;;16.75;99.60;101355.44;4955481;28;20098;-67
2021/07/04 02:57:55;;;;;;;52.53;23.88;;;;;;;16.75;99.82;101356.34;4954502;28;20043;-67
2021/07/04 03:00:24;;;;;;;56.30;26.48;;;;;;;16.74;99.57;101357.25;4962154;28;20116;-67
2021/07/04 03:02:52;;;;;;;55.60;26.67;;;;;;;16.73;99.32;101362.72;4953906;28;20451;-67
2021/07/04 03:05:21;;;;;;;49.88;25.10;;;;;;;16.72;99.39;101351.09;4960940;28;20137;-67
2021/07/04 03:07:50;;;;;;;59.05;26.95;;;;;;;16.72;99.62;101352.88;4956084;28;20343;-67
2021/07/04 03:10:21;;;;;;;57.85;26.45;;;;;;;16.69;99.84;101345.84;4959988;28;20063;-68
2021/07/04 03:12:49;;;;;;;52.38;24.65;;;;;;;16.69;99.94;101348.53;4957237;28;20322;-67
2021/07/04 03:15:18;;;;;;;58.28;26.67;;;;;;;16.65;99.76;101341.53;4961756;28;20058;-67
2021/07/04 03:17:46;;;;;;;50.65;23.52;;;;;;;16.62;99.39;101347.09;4958398;28;20144;-67
2021/07/04 03:20:15;;;;;;;52.42;25.70;;;;;;;16.55;100.00;101338.44;4956944;28;20063;-67
2021/07/04 03:22:45;;;;;;;60.33;27.60;;;;;;;16.50;100.00;101329.72;4955844;28;20081;-67
2021/07/04 03:25:15;;;;;;;60.35;26.88;;;;;;;16.47;100.00;101342.47;4959195;28;20058;-68
2021/07/04 03:27:44;;;;;;;52.47;25.40;;;;;;;16.43;100.00;101339.06;4954737;28;20125;-68
2021/07/04 03:30:15;;;;;;;58.33;28.10;;;;;;;16.36;100.00;101335.78;4961545;28;20054;-68
2021/07/04 03:32:43;;;;;;;58.72;27.60;;;;;;;16.30;100.00;101337.91;4950263;28;20079;-68
2021/07/04 03:35:14;;;;;;;58.25;25.52;;;;;;;16.29;100.00;101345.09;4958206;28;20046;-69
2021/07/04 03:37:43;;;;;;;50.70;22.98;;;;;;;16.28;99.78;101339.78;4958113;28;20438;-69
2021/07/04 03:40:16;;;;;;;51.60;24.20;;;;;;;16.24;100.00;101339.03;4954049;28;20184;-67
2021/07/04 03:42:43;;;;;;;53.30;25.02;;;;;;;16.22;100.00;101332.88;4961823;28;20406;-69
2021/07/04 03:45:12;;;;;;;50.60;22.58;;;;;;;16.19;100.00;101336.59;4956212;28;20133;-67
2021/07/04 03:47:41;;;;;;;49.65;23.70;;;;;;;16.20;100.00;101332.94;4957309;28;20617;-69
2021/07/04 03:50:10;;;;;;;59.35;26.90;;;;;;;16.16;100.00;101338.56;4956090;28;20073;-67
2021/07/04 03:52:38;;;;;;;57.03;25.10;;;;;;;16.15;100.00;101336.81;4954538;28;20145;-69
2021/07/04 03:55:07;;;;;;;58.17;25.55;;;;;;;16.08;100.00;101338.91;4958426;28;20063;-67
2021/07/04 03:57:36;;;;;;;57.10;25.90;;;;;;;16.06;100.00;101341.69;4952274;28;20070;-67
2021/07/04 04:00:08;;;;;;;56.33;24.80;;;;;;;16.06;100.00;101325.53;4953928;28;20062;-67
2021/07/04 04:02:36;;;;;;;52.70;23.58;;;;;;;16.04;100.00;101337.31;4955900;28;20063;-69
2021/07/04 04:05:04;;;;;;;54.08;23.67;;;;;;;16.03;100.00;101328.34;4955568;28;20144;-68
2021/07/04 04:07:32;;;;;;;53.25;23.15;;;;;;;16.03;100.00;101335.56;4961776;28;20555;-67
2021/07/04 04:10:00;;;;;;;51.35;23.42;;;;;;;16.00;100.00;101331.19;4954225;28;20524;-69
2021/07/04 04:12:28;;;;;;;51.17;24.17;;;;;;;15.99;100.00;101337.53;4958325;28;20070;-69
2021/07/04 04:14:57;;;;;;;52.42;23.60;;;;;;;15.98;100.00;101329.53;4957149;28;20063;-69
2021/07/04 04:17:24;;;;;;;51.97;23.60;;;;;;;16.00;100.00;101335.72;4956070;28;20093;-68
2021/07/04 04:19:52;;;;;;;57.65;24.88;;;;;;;16.02;100.00;101340.09;4960639;28;20168;-68
2021/07/04 04:22:20;;;;;;;56.78;23.95;;;;;;;16.02;100.00;101340.09;4955199;28;20093;-69
2021/07/04 04:24:49;;;;;;;55.45;24.27;;;;;;;16.04;100.00;101334.63;4958105;28;20066;-68
2021/07/04 04:27:17;;;;;;;50.97;22.90;;;;;;;16.08;100.00;101338.91;4958967;28;20059;-68
2021/07/04 04:29:46;;;;;;;55.72;25.73;;;;;;;16.14;100.00;101341.31;4960836;28;20054;-68
2021/07/04 04:32:15;;;;;;;60.50;26.30;;;;;;;16.18;100.00;101336.66;4956787;28;20082;-68
2021/07/04 04:34:43;;;;;;;54.92;23.15;;;;;;;16.27;100.00;101340.72;4958406;28;20142;-69
2021/07/04 04:37:12;;;;;;;59.47;26.75;;;;;;;16.33;100.00;101337.72;4959126;28;20098;-69
2021/07/04 04:39:40;;;;;;;63.28;27.05;;;;;;;16.47;100.00;101340.63;4958403;28;20066;-69
2021/07/04 04:42:08;;;;;;;68.40;27.17;;;;;;;16.62;100.00;101339.03;4955472;28;20070;-68
2021/07/04 04:44:36;;;;;;;65.28;28.48;;;;;;;16.74;100.00;101333.00;4960035;28;20118;-69
2021/07/04 04:47:04;;;;;;;61.28;26.85;;;;;;;16.89;100.00;101334.09;4955276;28;20121;-68
2021/07/04 04:49:34;;;;;;;58.38;24.70;;;;;;;17.07;99.61;101334.09;4958400;28;20121;-68
2021/07/04 04:52:02;;;;;;;62.28;27.20;;;;;;;17.23;99.01;101328.78;4953112;28;20094;-68
2021/07/04 04:54:30;;;;;;;62.15;25.83;;;;;;;17.35;99.08;101328.16;4956490;28;20352;-68
2021/07/04 04:57:05;;;;;;;55.72;24.38;;;;;;;17.33;98.59;101328.25;4956312;28;20094;-68
2021/07/04 04:59:34;;;;;;;62.15;28.40;;;;;;;17.49;98.22;101325.59;4958769;28;20069;-69
2021/07/04 05:02:03;;;;;;;62.88;27.67;;;;;;;17.54;97.54;101328.06;4958039;28;20115;-69
2021/07/04 05:04:30;;;;;;;64.70;27.52;;;;;;;17.49;97.29;101338.22;4962888;28;21117;-68
2021/07/04 05:07:00;;;;;;;53.85;26.45;;;;;;;17.52;97.14;101335.31;4958193;28;20121;-68
2021/07/04 05:09:27;;;;;;;51.92;25.92;;;;;;;17.63;96.92;101330.25;4960545;28;20074;-68
2021/07/04 05:11:55;;;;;;;51.08;24.55;;;;;;;17.57;96.35;101332.38;4958860;28;20125;-69
2021/07/04 05:14:23;;;;;;;48.35;20.73;;;;;;;17.62;95.03;101327.63;4963470;28;20361;-69
2021/07/04 05:16:51;;;;;;;49.35;23.13;;;;;;;17.76;95.31;101332.25;4959651;28;21430;-69
2021/07/04 05:19:19;;;;;;;50.70;22.73;;;;;;;18.05;94.80;101328.03;4963356;28;20465;-68
2021/07/04 05:21:46;;;;;;;47.47;21.42;;;;;;;18.29;94.40;101325.75;4963053;28;20062;-68
2021/07/04 05:24:16;;;;;;;41.15;21.73;;;;;;;18.48;92.67;101317.47;4963211;28;20062;-69
2021/07/04 05:26:44;;;;;;;42.05;20.48;;;;;;;18.60;92.95;101319.44;4959608;28;20129;-69
2021/07/04 05:29:11;;;;;;;41.55;20.83;;;;;;;18.83;91.64;101315.44;4959617;28;20394;-69
2021/07/04 05:31:40;;;;;;;35.88;19.30;;;;;;;18.91;89.16;101312.25;4963936;28;20112;-69
2021/07/04 05:34:08;;;;;;;42.35;21.02;;;;;;;19.15;88.92;101311.75;4956628;28;20048;-69
2021/07/04 05:36:35;;;;;;;43.35;22.45;;;;;;;19.16;87.55;101291.88;4963617;28;20466;-69
2021/07/04 05:39:03;;;;;;;37.92;19.88;;;;;;;19.51;87.00;101302.34;4957759;28;20453;-68
2021/07/04 05:41:32;;;;;;;34.28;18.00;;;;;;;19.14;85.22;101291.97;4961329;28;20055;-69
2021/07/04 05:44:00;;;;;;;32.38;17.23;;;;;;;19.10;84.97;101300.34;4958890;28;20067;-69
2021/07/04 05:46:29;;;;;;;31.85;18.42;;;;;;;19.26;85.43;101284.94;4962387;28;20413;-69
2021/07/04 05:49:00;;;;;;;33.25;18.05;;;;;;;19.48;84.47;101281.78;4957292;28;20349;-69
2021/07/04 05:51:28;;;;;;;38.35;19.65;;;;;;;19.57;85.00;101286.59;4960436;28;20097;-69
2021/07/04 05:53:56;;;;;;;36.25;19.60;;;;;;;19.69;84.03;101281.38;4958378;28;20513;-69
2021/07/04 05:56:23;;;;;;;33.33;17.42;;;;;;;19.70;82.77;101281.28;4962045;28;20366;-68
2021/07/04 05:58:52;;;;;;;32.63;17.73;;;;;;;19.83;82.60;101286.81;4959639;28;20137;-68
2021/07/04 06:01:24;;;;;;;;;;;;;;;19.98;80.63;101276.84;4962018;28;20070;-69
2021/07/04 06:03:52;;;;;;;33.10;17.65;;;;;;;19.90;82.00;101279.16;4957246;28;19935;-68
2021/07/04 06:06:20;;;;;;;33.88;17.08;;;;;;;19.91;81.11;101278.19;4962379;28;20089;-69
2021/07/04 06:08:48;;;;;;;24.88;13.85;;;;;;;19.77;80.11;101269.13;4959475;28;20096;-69
2021/07/04 06:11:18;;;;;;;24.40;14.05;;;;;;;19.86;78.96;101281.19;4957154;28;20349;-68
2021/07/04 06:13:46;;;;;;;26.70;14.15;;;;;;;19.50;80.46;101274.41;4964671;28;20042;-69
2021/07/04 06:16:15;;;;;;;23.98;13.38;;;;;;;19.49;81.57;101274.50;4957545;28;20162;-69
2021/07/04 06:18:43;;;;;;;27.08;13.00;;;;;;;19.64;80.76;101276.25;4961975;28;20070;-69
2021/07/04 06:21:11;;;;;;;22.00;12.80;;;;;;;19.63;80.83;101277.22;4955073;28;20063;-68
2021/07/04 06:23:38;;;;;;;24.90;13.00;;;;;;;19.25;81.27;101276.91;4958519;28;20106;-69
2021/07/04 06:26:06;;;;;;;22.60;12.85;;;;;;;19.20;80.86;101271.78;4959122;28;20042;-69
2021/07/04 06:28:34;;;;;;;24.00;12.93;;;;;;;18.92;80.47;101275.31;4959996;28;20446;-69
2021/07/04 06:31:02;;;;;;;22.88;12.02;;;;;;;19.13;81.17;101275.81;4959630;28;20059;-70
2021/07/04 06:33:31;;;;;;;25.40;14.32;;;;;;;19.01;82.10;101266.63;4960718;28;20141;-69
2021/07/04 06:35:59;;;;;;;24.73;13.65;;;;;;;19.01;82.35;101270.19;4957480;28;20346;-69
2021/07/04 06:38:27;;;;;;;22.65;12.38;;;;;;;18.79;82.42;101267.88;4963054;28;20137;-69
2021/07/04 06:40:55;;;;;;;24.92;13.43;;;;;;;18.66;82.05;101272.28;4958867;28;20134;-69
2021/07/04 06:43:23;;;;;;;23.23;12.25;;;;;;;18.54;81.90;101265.78;4960484;28;20161;-69
2021/07/04 06:45:52;;;;;;;22.65;11.75;;;;;;;18.60;83.18;101270.81;4958721;28;20067;-69
2021/07/04 06:48:20;;;;;;;18.98;10.93;;;;;;;18.54;82.42;101270.31;4959838;28;20067;-69
2021/07/04 06:50:49;;;;;;;22.00;11.02;;;;;;;18.59;82.61;101258.28;4959334;28;20477;-70
2021/07/04 06:53:17;;;;;;;25.90;13.35;;;;;;;18.67;82.70;101260.50;4959524;28;20145;-70
2021/07/04 06:55:45;;;;;;;23.42;11.80;;;;;;;18.82;81.67;101258.72;4961087;28;20066;-70
2021/07/04 06:58:12;;;;;;;18.63;10.73;;;;;;;18.96;81.57;101253.38;4959411;28;20291;-70
2021/07/04 07:00:40;;;;;;;19.48;11.13;;;;;;;19.20;80.24;101258.25;4962733;28;20129;-70
2021/07/04 07:03:08;;;;;;;20.00;11.40;;;;;;;19.59;78.47;101251.31;4960166;28;20125;-68
2021/07/04 07:05:35;;;;;;;21.13;11.98;;;;;;;20.00;76.30;101257.78;4959387;28;20062;-70
2021/07/04 07:08:05;;;;;;;20.70;11.80;;;;;;;20.25;74.52;101260.59;4957915;28;20094;-70
2021/07/04 07:10:33;;;;;;;18.45;10.95;;;;;;;20.27;75.17;101260.50;4959049;28;20165;-70
2021/07/04 07:13:01;;;;;;;19.85;10.45;;;;;;;20.29;75.76;101259.41;4956516;28;20067;-70
2021/07/04 07:15:29;;;;;;;17.42;10.63;;;;;;;20.24;74.56;101260.72;4959355;28;20063;-70
2021/07/04 07:17:56;;;;;;;19.20;11.82;;;;;;;20.29;75.63;101258.56;4957341;28;20689;-70
2021/07/04 07:20:25;;;;;;;22.85;13.55;;;;;;;20.14;75.58;101268.56;4960155;28;20121;-70
2021/07/04 07:22:53;;;;;;;24.33;13.98;;;;;;;19.96;75.82;101273.34;4957112;28;20066;-70
2021/07/04 07:25:22;;;;;;;22.05;14.50;;;;;;;20.04;76.37;101268.31;4959849;28;20063;-70
2021/07/04 07:27:50;;;;;;;24.42;14.48;;;;;;;20.52;74.83;101267.88;4958763;28;20047;-70
2021/07/04 07:30:21;;;;;;;24.10;14.98;;;;;;;20.17;74.35;101262.94;4961375;28;20153;-70
2021/07/04 07:32:50;;;;;;;23.70;15.00;;;;;;;20.43;73.98;101261.25;4958273;28;20066;-70
2021/07/04 07:35:18;;;;;;;21.02;14.35;;;;;;;20.32;73.39;101263.78;4958724;28;20090;-70
2021/07/04 07:37:48;;;;;;;17.98;11.55;;;;;;;20.71;73.58;101260.25;4955330;28;20043;-70
2021/07/04 07:40:17;;;;;;;19.55;11.73;;;;;;;21.02;71.50;101241.88;4961118;28;20430;-70
2021/07/04 07:42:46;;;;;;;16.45;10.55;;;;;;;21.48;68.84;101254.06;4957705;28;20070;-69
2021/07/04 07:45:14;;;;;;;17.75;11.48;;;;;;;21.41;69.04;101250.88;4959403;28;20063;-68
2021/07/04 07:47:43;;;;;;;17.98;11.43;;;;;;;21.90;66.80;101237.50;4957367;28;20086;-69
2021/07/04 07:50:12;;;;;;;18.15;11.98;;;;;;;22.61;66.56;101240.34;4957328;28;20063;-68
2021/07/04 07:52:40;;;;;;;16.00;10.88;;;;;;;22.91;63.58;101231.69;4960010;28;20152;-68
2021/07/04 07:55:09;;;;;;;19.50;12.18;;;;;;;23.18;64.22;101239.56;4956924;28;20075;-69
2021/07/04 07:57:38;;;;;;;16.63;10.80;;;;;;;23.07;62.87;101240.44;4961916;28;20062;-69
2021/07/04 08:00:11;;;;;;;16.33;10.73;;;;;;;23.55;61.87;101244.81;4953999;28;20108;-69
2021/07/04 08:02:41;;;;;;;15.95;11.90;;;;;;;22.61;62.76;101237.63;4957652;28;20344;-69
2021/07/04 08:05:10;;;;;;;16.50;10.43;;;;;;;23.04;62.88;101228.88;4954052;28;20643;-69
2021/07/04 08:07:37;;;;;;;14.60;10.27;;;;;;;23.71;60.73;101227.22;4956933;28;20066;-69
2021/07/04 08:10:06;;;;;;;15.85;11.02;;;;;;;24.55;60.66;101230.25;4957220;28;20097;-69
2021/07/04 08:12:34;;;;;;;13.20;8.55;;;;;;;24.77;58.75;101229.28;4956510;28;20324;-70
2021/07/04 08:15:03;;;;;;;12.13;8.35;;;;;;;24.92;58.24;101221.66;4958256;28;20059;-69
2021/07/04 08:17:33;;;;;;;10.93;7.60;;;;;;;25.39;55.68;101221.22;4957089;28;20058;-69
2021/07/04 08:20:01;;;;;;;11.63;8.90;;;;;;;25.47;55.85;101222.28;4952885;28;20070;-69
2021/07/04 08:22:29;;;;;;;12.52;9.95;;;;;;;25.49;52.50;101213.97;4959192;28;20062;-70
2021/07/04 08:24:58;;;;;;;11.18;8.95;;;;;;;25.76;53.77;101218.81;4952603;28;20447;-69
2021/07/04 08:27:25;;;;;;;11.50;8.82;;;;;;;25.09;55.58;101221.03;4958109;28;20283;-68
2021/07/04 08:29:53;;;;;;;16.48;10.18;;;;;;;24.90;55.15;101219.06;4958177;28;20071;-69
2021/07/04 08:32:21;;;;;;;11.55;8.20;;;;;;;24.26;57.32;101221.81;4957327;28;20069;-68
2021/07/04 08:34:50;;;;;;;10.02;7.20;;;;;;;24.46;56.52;101222.84;4959441;28;20150;-70
2021/07/04 08:37:18;;;;;;;11.13;7.80;;;;;;;24.72;55.06;101221.53;4954753;28;20067;-70
2021/07/04 08:39:46;;;;;;;11.10;7.78;;;;;;;24.53;54.34;101215.88;4961768;28;20051;-68
2021/07/04 08:42:14;;;;;;;10.10;7.25;;;;;;;24.34;55.44;101219.28;4959974;28;20047;-69
2021/07/04 08:44:47;;;;;;;10.45;6.50;;;;;;;24.17;56.32;101213.41;4956119;28;20059;-70
2021/07/04 08:47:17;;;;;;;9.02;6.25;;;;;;;24.89;54.74;101208.25;4956326;28;20070;-70
2021/07/04 08:49:45;;;;;;;10.00;5.65;;;;;;;24.93;52.80;101201.56;4959067;28;20367;-68
2021/07/04 08:52:14;;;;;;;8.88;5.15;;;;;;;25.04;52.99;101206.06;4956772;28;20094;-68
2021/07/04 08:54:43;;;;;;;8.77;5.93;;;;;;;24.89;52.54;101208.25;4960237;28;20073;-70
2021/07/04 08:57:12;;;;;;;6.65;4.50;;;;;;;25.16;51.60;101210.44;4955020;28;20090;-70
2021/07/04 08:59:41;;;;;;;9.95;4.30;;;;;;;25.30;51.98;101218.31;4959108;28;20067;-70
2021/07/04 09:02:11;;;;;;;8.25;4.72;;;;;;;25.20;51.03;101206.47;4951944;28;20141;-69
2021/07/04 09:04:40;;;;;;;6.85;4.55;;;;;;;25.62;50.99;101214.56;4957691;28;20073;-70
2021/07/04 09:07:08;;;;;;;7.32;4.32;;;;;;;25.58;50.53;101215.84;4956358;28;20094;-69
2021/07/04 09:09:36;;;;;;;5.50;3.50;;;;;;;26.25;49.15;101200.63;4953319;28;20067;-70
2021/07/04 09:12:06;;;;;;;6.95;3.22;;;;;;;26.23;47.51;101201.78;4958605;28;20149;-70
2021/07/04 09:14:36;;;;;;;5.68;3.50;;;;;;;25.58;48.13;101206.81;4958188;28;20255;-70
2021/07/04 09:17:33;;;;;;;7.70;3.75;;;;;;;25.01;49.28;101211.78;4956695;28;20066;-69
2021/07/04 09:20:02;;;;;;;6.15;3.55;;;;;;;25.36;50.02;101200.53;4958853;28;20065;-70
2021/07/04 09:22:31;;;;;;;6.63;3.45;;;;;;;24.65;49.83;101206.66;4949508;28;20391;-69
2021/07/04 09:25:09;;;;;;;6.70;3.35;;;;;;;24.76;48.84;101197.56;4959088;28;20373;-69
2021/07/04 09:27:38;;;;;;;7.65;3.60;;;;;;;24.06;49.72;101199.81;4952260;28;20075;-70
2021/07/04 09:30:11;;;;;;;6.45;3.83;;;;;;;23.41;53.80;101194.19;4960574;28;20157;-69
2021/07/04 09:32:47;;;;;;;7.32;4.15;;;;;;;23.15;53.70;101190.81;4955245;28;20063;-69
2021/07/04 09:35:17;;;;;;;;;;;;;;;23.84;53.69;101195.28;4956127;28;20342;-69
2021/07/04 09:37:47;;;;;;;6.18;3.85;;;;;;;23.60;52.40;101192.66;4956414;28;19933;-68
2021/07/04 09:40:20;;;;;;;7.65;3.67;;;;;;;23.68;53.21;101179.28;4952761;28;20106;-69
2021/07/04 09:43:04;;;;;;;7.68;4.57;;;;;;;23.92;53.05;101192.75;4954360;28;20067;-68
2021/07/04 09:45:45;;;;;;;7.72;4.07;;;;;;;23.90;53.56;101189.31;4956193;28;21156;-68
2021/07/04 09:48:15;;;;;;;8.30;4.78;;;;;;;23.97;53.66;101196.00;4954602;28;20078;-68
2021/07/04 09:50:45;;;;;;;5.97;3.58;;;;;;;24.01;53.67;101181.13;4962569;28;20145;-68
2021/07/04 09:53:14;;;;;;;9.02;5.53;;;;;;;24.28;52.65;101178.91;4956470;28;20117;-69
2021/07/04 09:55:44;;;;;;;9.80;4.40;;;;;;;23.65;53.41;101185.88;4963646;28;20071;-69
2021/07/04 09:58:13;;;;;;;7.90;4.13;;;;;;;24.26;52.82;101186.34;4959543;28;20067;-69
2021/07/04 10:00:43;;;;;;;7.95;4.72;;;;;;;23.72;53.36;101182.63;4960961;28;20069;-68
2021/07/04 10:03:15;;;;;;;7.95;4.35;;;;;;;23.66;53.92;101178.56;4962421;28;20074;-68
2021/07/04 10:05:45;;;;;;;7.35;5.00;;;;;;;23.67;53.70;101181.16;4955698;28;20062;-68
2021/07/04 10:08:23;;;;;;;7.55;5.10;;;;;;;24.13;53.05;101178.38;4963480;28;20129;-68
2021/07/04 10:10:55;;;;;;;7.28;4.43;;;;;;;24.00;52.90;101167.63;4956542;28;20148;-68
2021/07/04 10:13:23;;;;;;;8.18;4.72;;;;;;;23.75;51.78;101166.03;4961108;28;20063;-68
2021/07/04 10:15:52;;;;;;;6.93;4.65;;;;;;;24.05;51.80;101166.22;4965175;28;20067;-68
2021/07/04 10:18:20;;;;;;;9.63;4.88;;;;;;;24.46;53.66;101169.16;4961681;28;20503;-68
2021/07/04 10:20:50;;;;;;;8.85;5.15;;;;;;;24.43;53.13;101170.31;4956193;28;20118;-69
2021/07/04 10:23:19;;;;;;;9.27;5.20;;;;;;;24.10;53.68;101163.13;4958631;28;20153;-69
2021/07/04 10:25:48;;;;;;;10.10;5.50;;;;;;;24.30;53.64;101172.34;4953945;28;20090;-69
2021/07/04 10:28:20;;;;;;;8.82;4.65;;;;;;;24.77;52.99;101155.63;4958618;28;20219;-68
2021/07/04 10:30:49;;;;;;;9.48;4.63;;;;;;;24.94;52.92;101159.59;4954901;28;20067;-69
2021/07/04 10:33:20;;;;;;;9.85;5.03;;;;;;;24.53;52.74;101155.88;4962660;28;20063;-71
2021/07/04 10:36:07;;;;;;;8.45;5.00;;;;;;;24.60;53.66;101151.63;4953549;28;20059;-69
2021/07/04 10:38:55;;;;;;;12.15;6.82;;;;;;;24.73;50.71;101151.44;4959985;28;20067;-70
2021/07/04 10:41:26;;;;;;;8.88;5.00;;;;;;;25.52;50.70;101153.56;4953960;28;20138;-72
2021/07/04 10:44:07;;;;;;;11.32;5.45;;;;;;;25.25;49.11;101145.97;4958650;28;20071;-71
2021/07/04 10:47:15;;;;;;;7.45;4.72;;;;;;;25.27;50.80;101144.88;4958989;28;20067;-71
2021/07/04 10:49:48;;;;;;;8.13;4.75;;;;;;;25.41;50.78;101140.03;4956244;28;20519;-70
2021/07/04 10:52:17;;;;;;;;;;;;;;;24.98;51.74;101139.25;4953844;28;20166;-68
2021/07/04 10:54:52;;;;;;;9.55;5.25;;;;;;;24.96;52.89;101133.91;4956065;28;19926;-70
2021/07/04 10:57:25;;;;;;;6.72;4.35;;;;;;;24.59;52.81;101133.56;4954557;28;20105;-70
2021/07/04 11:00:21;;;;;;;8.45;5.00;;;;;;;24.54;52.08;101127.59;4962944;28;20067;-69
2021/07/04 11:02:53;;;;;;;8.20;4.90;;;;;;;24.98;51.58;101131.91;4958217;28;20398;-69
2021/07/04 11:05:51;;;;;;;9.07;5.05;;;;;;;25.17;50.48;101136.59;4959320;28;20059;-69
2021/07/04 11:08:27;;;;;;;8.15;5.28;;;;;;;24.68;51.38;101130.00;4956503;28;20101;-68
2021/07/04 11:11:07;;;;;;;8.50;5.53;;;;;;;24.66;50.80;101131.16;4956723;28;20121;-69
2021/07/04 11:13:49;;;;;;;19.58;10.63;;;;;;;24.73;51.98;101124.16;4954639;28;20462;-70
2021/07/04 11:16:26;;;;;;;8.35;5.18;;;;;;;24.70;53.26;101122.56;4959888;28;20067;-69
2021/07/04 11:19:07;;;;;;;8.82;5.72;;;;;;;24.05;52.71;101121.75;4960025;28;20306;-72
2021/07/04 11:22:02;;;;;;;6.32;4.57;;;;;;;24.67;53.04;101114.66;4956764;28;20117;-69
2021/07/04 11:24:30;;;;;;;9.10;4.80;;;;;;;24.49;54.41;101110.78;4933434;28;20063;-69